sensor_id;sensor_type;location;lat;lon;timestamp;temperature;humidity
75161;DHT22;67232;50.096;8.716;2023-08-06T00:00:40;17.50;85.70
75161;DHT22;67232;50.096;8.716;2023-08-06T00:03:06;17.60;85.80
75161;DHT22;67232;50.096;8.716;2023-08-06T00:05:33;17.30;86.20
75161;DHT22;67232;50.096;8.716;2023-08-06T00:07:59;17.30;86.30
75161;DHT22;67232;50.096;8.716;2023-08-06T00:10:24;17.10;86.90
75161;DHT22;67232;50.096;8.716;2023-08-06T00:12:52;17.00;87.20
75161;DHT22;67232;50.096;8.716;2023-08-06T00:15:17;17.00;87.40
75161;DHT22;67232;50.096;8.716;2023-08-06T00:17:46;17.10;87.30
75161;DHT22;67232;50.096;8.716;2023-08-06T00:20:11;17.20;87.00
75161;DHT22;67232;50.096;8.716;2023-08-06T00:22:37;17.30;86.80
75161;DHT22;67232;50.096;8.716;2023-08-06T00:25:05;17.30;86.60
75161;DHT22;67232;50.096;8.716;2023-08-06T00:27:34;17.20;86.80
75161;DHT22;67232;50.096;8.716;2023-08-06T00:29:59;17.20;86.80
75161;DHT22;67232;50.096;8.716;2023-08-06T00:32:25;17.20;87.00
75161;DHT22;67232;50.096;8.716;2023-08-06T00:34:50;17.20;86.80
75161;DHT22;67232;50.096;8.716;2023-08-06T00:37:16;17.20;86.90
75161;DHT22;67232;50.096;8.716;2023-08-06T00:39:42;17.20;86.60
75161;DHT22;67232;50.096;8.716;2023-08-06T00:42:11;17.20;86.80
75161;DHT22;67232;50.096;8.716;2023-08-06T00:44:37;17.10;87.00
75161;DHT22;67232;50.096;8.716;2023-08-06T00:47:03;17.10;86.90
75161;DHT22;67232;50.096;8.716;2023-08-06T00:49:29;17.20;86.90
75161;DHT22;67232;50.096;8.716;2023-08-06T00:51:55;17.20;86.70
75161;DHT22;67232;50.096;8.716;2023-08-06T00:54:23;17.10;86.70
75161;DHT22;67232;50.096;8.716;2023-08-06T00:56:49;17.20;86.60
75161;DHT22;67232;50.096;8.716;2023-08-06T00:59:15;17.10;86.40
75161;DHT22;67232;50.096;8.716;2023-08-06T01:01:41;17.20;86.70
75161;DHT22;67232;50.096;8.716;2023-08-06T01:04:07;17.30;86.40
75161;DHT22;67232;50.096;8.716;2023-08-06T01:14:30;17.30;86.70
75161;DHT22;67232;50.096;8.716;2023-08-06T01:16:59;17.20;86.20
75161;DHT22;67232;50.096;8.716;2023-08-06T01:19:31;17.40;86.10
75161;DHT22;67232;50.096;8.716;2023-08-06T01:21:57;17.20;86.20
75161;DHT22;67232;50.096;8.716;2023-08-06T01:24:25;17.20;86.40
75161;DHT22;67232;50.096;8.716;2023-08-06T01:27:14;17.30;86.50
75161;DHT22;67232;50.096;8.716;2023-08-06T01:29:47;17.40;86.20
75161;DHT22;67232;50.096;8.716;2023-08-06T01:32:14;17.60;85.80
75161;DHT22;67232;50.096;8.716;2023-08-06T01:34:41;17.50;85.90
75161;DHT22;67232;50.096;8.716;2023-08-06T01:37:09;17.40;85.80
75161;DHT22;67232;50.096;8.716;2023-08-06T01:39:35;17.30;86.30
75161;DHT22;67232;50.096;8.716;2023-08-06T01:42:00;17.20;86.20
75161;DHT22;67232;50.096;8.716;2023-08-06T01:44:28;17.10;86.60
75161;DHT22;67232;50.096;8.716;2023-08-06T01:46:54;17.10;86.50
75161;DHT22;67232;50.096;8.716;2023-08-06T01:49:19;17.10;86.60
75161;DHT22;67232;50.096;8.716;2023-08-06T01:51:45;17.10;86.20
75161;DHT22;67232;50.096;8.716;2023-08-06T01:54:10;17.10;86.50
75161;DHT22;67232;50.096;8.716;2023-08-06T01:56:36;17.20;86.60
75161;DHT22;67232;50.096;8.716;2023-08-06T01:59:01;17.20;86.40
75161;DHT22;67232;50.096;8.716;2023-08-06T02:01:29;17.10;86.60
75161;DHT22;67232;50.096;8.716;2023-08-06T02:03:55;17.30;86.20
75161;DHT22;67232;50.096;8.716;2023-08-06T02:06:20;17.30;86.10
75161;DHT22;67232;50.096;8.716;2023-08-06T02:08:46;17.20;86.40
75161;DHT22;67232;50.096;8.716;2023-08-06T02:11:13;17.20;86.40
75161;DHT22;67232;50.096;8.716;2023-08-06T02:13:39;17.20;86.20
75161;DHT22;67232;50.096;8.716;2023-08-06T02:16:06;17.20;86.40
75161;DHT22;67232;50.096;8.716;2023-08-06T02:18:35;17.10;86.50
75161;DHT22;67232;50.096;8.716;2023-08-06T02:21:00;17.20;86.50
75161;DHT22;67232;50.096;8.716;2023-08-06T02:23:26;17.20;86.40
75161;DHT22;67232;50.096;8.716;2023-08-06T02:28:26;17.20;86.30
75161;DHT22;67232;50.096;8.716;2023-08-06T02:30:52;17.30;86.40
75161;DHT22;67232;50.096;8.716;2023-08-06T02:33:20;17.30;86.30
75161;DHT22;67232;50.096;8.716;2023-08-06T02:35:45;17.30;86.30
75161;DHT22;67232;50.096;8.716;2023-08-06T02:38:10;17.30;86.40
75161;DHT22;67232;50.096;8.716;2023-08-06T02:40:36;17.40;86.10
75161;DHT22;67232;50.096;8.716;2023-08-06T02:43:02;17.50;86.00
75161;DHT22;67232;50.096;8.716;2023-08-06T02:45:28;17.50;85.70
75161;DHT22;67232;50.096;8.716;2023-08-06T02:47:56;17.40;85.80
75161;DHT22;67232;50.096;8.716;2023-08-06T02:50:24;17.20;86.00
75161;DHT22;67232;50.096;8.716;2023-08-06T02:52:49;17.20;86.30
75161;DHT22;67232;50.096;8.716;2023-08-06T02:55:17;17.30;86.10
75161;DHT22;67232;50.096;8.716;2023-08-06T02:57:42;17.40;85.90
75161;DHT22;67232;50.096;8.716;2023-08-06T03:00:11;17.20;86.20
75161;DHT22;67232;50.096;8.716;2023-08-06T03:02:39;17.20;86.20
75161;DHT22;67232;50.096;8.716;2023-08-06T03:05:05;17.10;86.20
75161;DHT22;67232;50.096;8.716;2023-08-06T03:07:34;17.00;86.60
75161;DHT22;67232;50.096;8.716;2023-08-06T03:10:01;17.00;86.60
75161;DHT22;67232;50.096;8.716;2023-08-06T03:12:27;16.90;86.70
75161;DHT22;67232;50.096;8.716;2023-08-06T03:14:52;17.00;86.90
75161;DHT22;67232;50.096;8.716;2023-08-06T03:17:20;16.90;86.90
75161;DHT22;67232;50.096;8.716;2023-08-06T03:19:46;16.90;87.00
75161;DHT22;67232;50.096;8.716;2023-08-06T03:22:11;16.90;87.40
75161;DHT22;67232;50.096;8.716;2023-08-06T03:24:37;17.00;87.40
75161;DHT22;67232;50.096;8.716;2023-08-06T03:27:02;17.10;87.20
75161;DHT22;67232;50.096;8.716;2023-08-06T03:29:28;17.10;86.90
75161;DHT22;67232;50.096;8.716;2023-08-06T03:31:53;17.20;86.80
75161;DHT22;67232;50.096;8.716;2023-08-06T03:34:19;17.20;86.60
75161;DHT22;67232;50.096;8.716;2023-08-06T03:36:44;17.20;86.50
75161;DHT22;67232;50.096;8.716;2023-08-06T03:39:10;17.10;86.40
75161;DHT22;67232;50.096;8.716;2023-08-06T03:41:35;17.20;86.60
75161;DHT22;67232;50.096;8.716;2023-08-06T03:44:01;17.10;86.60
75161;DHT22;67232;50.096;8.716;2023-08-06T03:46:29;17.20;86.10
75161;DHT22;67232;50.096;8.716;2023-08-06T03:48:55;17.10;86.40
75161;DHT22;67232;50.096;8.716;2023-08-06T03:51:20;17.10;86.10
75161;DHT22;67232;50.096;8.716;2023-08-06T03:53:46;17.00;86.50
75161;DHT22;67232;50.096;8.716;2023-08-06T03:56:11;17.00;86.40
75161;DHT22;67232;50.096;8.716;2023-08-06T03:58:39;17.00;86.30
75161;DHT22;67232;50.096;8.716;2023-08-06T04:01:04;17.00;86.00
75161;DHT22;67232;50.096;8.716;2023-08-06T04:03:30;17.10;85.80
75161;DHT22;67232;50.096;8.716;2023-08-06T04:05:55;16.90;86.10
75161;DHT22;67232;50.096;8.716;2023-08-06T04:08:21;16.90;86.20
75161;DHT22;67232;50.096;8.716;2023-08-06T04:10:50;17.00;86.10
75161;DHT22;67232;50.096;8.716;2023-08-06T04:13:16;16.80;86.20
75161;DHT22;67232;50.096;8.716;2023-08-06T04:15:41;16.90;86.20
75161;DHT22;67232;50.096;8.716;2023-08-06T04:18:07;17.00;85.80
75161;DHT22;67232;50.096;8.716;2023-08-06T04:20:35;17.00;85.60
75161;DHT22;67232;50.096;8.716;2023-08-06T04:23:06;17.00;85.40
75161;DHT22;67232;50.096;8.716;2023-08-06T04:25:33;17.00;85.50
75161;DHT22;67232;50.096;8.716;2023-08-06T04:27:59;17.10;85.20
75161;DHT22;67232;50.096;8.716;2023-08-06T04:30:26;17.10;85.00
75161;DHT22;67232;50.096;8.716;2023-08-06T04:32:52;17.20;84.70
75161;DHT22;67232;50.096;8.716;2023-08-06T04:35:17;17.20;84.90
75161;DHT22;67232;50.096;8.716;2023-08-06T04:37:45;17.10;84.80
75161;DHT22;67232;50.096;8.716;2023-08-06T04:40:11;17.00;85.40
75161;DHT22;67232;50.096;8.716;2023-08-06T04:42:36;17.10;84.90
75161;DHT22;67232;50.096;8.716;2023-08-06T04:45:02;17.20;84.80
75161;DHT22;67232;50.096;8.716;2023-08-06T04:47:28;17.10;84.90
75161;DHT22;67232;50.096;8.716;2023-08-06T04:49:53;17.00;85.40
75161;DHT22;67232;50.096;8.716;2023-08-06T04:52:21;17.00;85.40
75161;DHT22;67232;50.096;8.716;2023-08-06T04:54:46;17.20;85.00
75161;DHT22;67232;50.096;8.716;2023-08-06T04:57:12;17.00;85.50
75161;DHT22;67232;50.096;8.716;2023-08-06T04:59:38;17.10;85.60
75161;DHT22;67232;50.096;8.716;2023-08-06T05:02:04;17.10;85.30
75161;DHT22;67232;50.096;8.716;2023-08-06T05:04:29;17.20;85.60
75161;DHT22;67232;50.096;8.716;2023-08-06T05:06:55;17.20;85.60
75161;DHT22;67232;50.096;8.716;2023-08-06T05:09:20;17.00;85.90
75161;DHT22;67232;50.096;8.716;2023-08-06T05:11:46;17.10;86.20
75161;DHT22;67232;50.096;8.716;2023-08-06T05:14:12;17.10;86.20
75161;DHT22;67232;50.096;8.716;2023-08-06T05:16:37;17.30;86.10
75161;DHT22;67232;50.096;8.716;2023-08-06T05:19:03;17.20;86.30
75161;DHT22;67232;50.096;8.716;2023-08-06T05:21:30;16.80;87.10
75161;DHT22;67232;50.096;8.716;2023-08-06T05:23:56;16.70;87.40
75161;DHT22;67232;50.096;8.716;2023-08-06T05:26:21;16.70;87.90
75161;DHT22;67232;50.096;8.716;2023-08-06T05:28:49;17.00;87.20
75161;DHT22;67232;50.096;8.716;2023-08-06T05:31:15;16.90;87.40
75161;DHT22;67232;50.096;8.716;2023-08-06T05:33:41;16.80;87.60
75161;DHT22;67232;50.096;8.716;2023-08-06T05:36:06;16.90;87.90
75161;DHT22;67232;50.096;8.716;2023-08-06T05:38:32;16.80;87.40
75161;DHT22;67232;50.096;8.716;2023-08-06T05:40:57;16.70;87.50
75161;DHT22;67232;50.096;8.716;2023-08-06T05:43:25;16.90;87.80
75161;DHT22;67232;50.096;8.716;2023-08-06T05:45:51;16.80;87.60
75161;DHT22;67232;50.096;8.716;2023-08-06T05:48:16;16.70;87.70
75161;DHT22;67232;50.096;8.716;2023-08-06T05:50:42;16.60;88.40
75161;DHT22;67232;50.096;8.716;2023-08-06T05:53:10;16.60;88.10
75161;DHT22;67232;50.096;8.716;2023-08-06T05:55:37;16.70;88.00
75161;DHT22;67232;50.096;8.716;2023-08-06T05:58:03;16.70;87.90
75161;DHT22;67232;50.096;8.716;2023-08-06T06:00:29;16.70;87.90
75161;DHT22;67232;50.096;8.716;2023-08-06T06:02:54;16.70;87.40
75161;DHT22;67232;50.096;8.716;2023-08-06T06:05:20;16.90;87.90
75161;DHT22;67232;50.096;8.716;2023-08-06T06:07:45;16.80;87.50
75161;DHT22;67232;50.096;8.716;2023-08-06T06:10:11;16.70;87.50
75161;DHT22;67232;50.096;8.716;2023-08-06T06:12:38;16.70;87.50
75161;DHT22;67232;50.096;8.716;2023-08-06T06:15:04;16.60;87.70
75161;DHT22;67232;50.096;8.716;2023-08-06T06:17:30;16.70;88.20
75161;DHT22;67232;50.096;8.716;2023-08-06T06:19:56;16.60;87.60
75161;DHT22;67232;50.096;8.716;2023-08-06T06:22:21;16.80;87.70
75161;DHT22;67232;50.096;8.716;2023-08-06T06:24:47;16.80;86.90
75161;DHT22;67232;50.096;8.716;2023-08-06T06:27:12;16.90;87.10
75161;DHT22;67232;50.096;8.716;2023-08-06T06:29:39;17.00;86.90
75161;DHT22;67232;50.096;8.716;2023-08-06T06:32:04;17.00;86.80
75161;DHT22;67232;50.096;8.716;2023-08-06T06:34:30;16.80;87.50
75161;DHT22;67232;50.096;8.716;2023-08-06T06:36:55;16.70;87.90
75161;DHT22;67232;50.096;8.716;2023-08-06T06:39:21;16.60;88.20
75161;DHT22;67232;50.096;8.716;2023-08-06T06:41:46;16.60;88.50
75161;DHT22;67232;50.096;8.716;2023-08-06T06:44:13;16.40;88.60
75161;DHT22;67232;50.096;8.716;2023-08-06T06:46:39;16.50;88.80
75161;DHT22;67232;50.096;8.716;2023-08-06T06:49:07;16.60;88.60
75161;DHT22;67232;50.096;8.716;2023-08-06T06:51:32;16.60;88.70
75161;DHT22;67232;50.096;8.716;2023-08-06T06:53:58;16.70;88.30
75161;DHT22;67232;50.096;8.716;2023-08-06T06:56:23;16.70;88.20
75161;DHT22;67232;50.096;8.716;2023-08-06T06:58:51;16.70;87.60
75161;DHT22;67232;50.096;8.716;2023-08-06T07:01:17;16.70;88.30
75161;DHT22;67232;50.096;8.716;2023-08-06T07:03:45;16.60;88.00
75161;DHT22;67232;50.096;8.716;2023-08-06T07:06:10;16.70;88.20
75161;DHT22;67232;50.096;8.716;2023-08-06T07:08:37;16.70;88.40
75161;DHT22;67232;50.096;8.716;2023-08-06T07:11:04;16.70;88.40
75161;DHT22;67232;50.096;8.716;2023-08-06T07:13:31;16.80;88.80
75161;DHT22;67232;50.096;8.716;2023-08-06T07:15:59;16.80;88.00
75161;DHT22;67232;50.096;8.716;2023-08-06T07:18:24;16.70;88.50
75161;DHT22;67232;50.096;8.716;2023-08-06T07:20:53;16.80;88.40
75161;DHT22;67232;50.096;8.716;2023-08-06T07:23:24;16.90;87.90
75161;DHT22;67232;50.096;8.716;2023-08-06T07:25:50;16.80;87.40
75161;DHT22;67232;50.096;8.716;2023-08-06T07:28:16;16.80;88.00
75161;DHT22;67232;50.096;8.716;2023-08-06T07:30:42;16.60;88.10
75161;DHT22;67232;50.096;8.716;2023-08-06T07:33:08;16.50;88.20
75161;DHT22;67232;50.096;8.716;2023-08-06T07:35:33;16.50;88.60
75161;DHT22;67232;50.096;8.716;2023-08-06T07:37:59;16.50;88.70
75161;DHT22;67232;50.096;8.716;2023-08-06T07:40:25;16.50;88.80
75161;DHT22;67232;50.096;8.716;2023-08-06T07:42:50;16.50;88.90
75161;DHT22;67232;50.096;8.716;2023-08-06T07:45:16;16.70;88.60
75161;DHT22;67232;50.096;8.716;2023-08-06T07:47:44;16.60;88.40
75161;DHT22;67232;50.096;8.716;2023-08-06T07:50:12;16.60;88.70
75161;DHT22;67232;50.096;8.716;2023-08-06T07:52:40;16.60;88.50
75161;DHT22;67232;50.096;8.716;2023-08-06T07:55:06;16.70;88.60
75161;DHT22;67232;50.096;8.716;2023-08-06T07:57:34;16.80;88.80
75161;DHT22;67232;50.096;8.716;2023-08-06T08:00:00;16.90;88.00
75161;DHT22;67232;50.096;8.716;2023-08-06T08:02:27;16.90;88.10
75161;DHT22;67232;50.096;8.716;2023-08-06T08:04:52;16.90;88.00
75161;DHT22;67232;50.096;8.716;2023-08-06T08:07:20;16.80;88.80
75161;DHT22;67232;50.096;8.716;2023-08-06T08:09:46;17.00;88.40
75161;DHT22;67232;50.096;8.716;2023-08-06T08:12:13;16.90;87.70
75161;DHT22;67232;50.096;8.716;2023-08-06T08:14:39;16.80;88.20
75161;DHT22;67232;50.096;8.716;2023-08-06T08:17:07;16.70;88.40
75161;DHT22;67232;50.096;8.716;2023-08-06T08:19:35;16.70;88.70
75161;DHT22;67232;50.096;8.716;2023-08-06T08:22:00;16.90;88.20
75161;DHT22;67232;50.096;8.716;2023-08-06T08:24:26;17.00;88.00
75161;DHT22;67232;50.096;8.716;2023-08-06T08:26:54;17.10;88.00
75161;DHT22;67232;50.096;8.716;2023-08-06T08:29:20;17.10;87.80
75161;DHT22;67232;50.096;8.716;2023-08-06T08:31:46;17.30;87.70
75161;DHT22;67232;50.096;8.716;2023-08-06T08:34:15;17.40;87.70
75161;DHT22;67232;50.096;8.716;2023-08-06T08:36:40;17.40;87.70
75161;DHT22;67232;50.096;8.716;2023-08-06T08:39:08;17.80;87.70
75161;DHT22;67232;50.096;8.716;2023-08-06T08:41:34;17.80;87.10
75161;DHT22;67232;50.096;8.716;2023-08-06T08:44:00;18.10;86.60
75161;DHT22;67232;50.096;8.716;2023-08-06T08:46:27;18.40;85.10
75161;DHT22;67232;50.096;8.716;2023-08-06T08:48:55;18.40;85.50
75161;DHT22;67232;50.096;8.716;2023-08-06T08:51:26;18.20;85.60
75161;DHT22;67232;50.096;8.716;2023-08-06T08:53:53;18.50;85.80
75161;DHT22;67232;50.096;8.716;2023-08-06T08:56:21;18.70;85.80
75161;DHT22;67232;50.096;8.716;2023-08-06T08:58:46;19.10;85.00
75161;DHT22;67232;50.096;8.716;2023-08-06T09:01:15;19.60;84.50
75161;DHT22;67232;50.096;8.716;2023-08-06T09:03:41;19.50;82.20
75161;DHT22;67232;50.096;8.716;2023-08-06T09:06:11;19.50;82.50
75161;DHT22;67232;50.096;8.716;2023-08-06T09:08:43;19.60;82.20
75161;DHT22;67232;50.096;8.716;2023-08-06T09:11:15;19.80;82.80
75161;DHT22;67232;50.096;8.716;2023-08-06T09:13:41;19.90;81.20
75161;DHT22;67232;50.096;8.716;2023-08-06T09:16:07;20.10;81.10
75161;DHT22;67232;50.096;8.716;2023-08-06T09:18:32;20.00;80.60
75161;DHT22;67232;50.096;8.716;2023-08-06T09:20:58;19.90;81.80
75161;DHT22;67232;50.096;8.716;2023-08-06T09:23:30;20.10;82.10
75161;DHT22;67232;50.096;8.716;2023-08-06T09:25:59;20.00;81.30
75161;DHT22;67232;50.096;8.716;2023-08-06T09:28:46;19.70;82.50
75161;DHT22;67232;50.096;8.716;2023-08-06T09:31:13;19.30;81.10
75161;DHT22;67232;50.096;8.716;2023-08-06T09:33:41;18.90;81.70
75161;DHT22;67232;50.096;8.716;2023-08-06T09:36:10;18.80;81.40
75161;DHT22;67232;50.096;8.716;2023-08-06T09:38:41;18.70;82.30
75161;DHT22;67232;50.096;8.716;2023-08-06T09:41:07;18.60;83.10
75161;DHT22;67232;50.096;8.716;2023-08-06T09:43:42;18.70;82.50
75161;DHT22;67232;50.096;8.716;2023-08-06T09:46:11;18.40;83.20
75161;DHT22;67232;50.096;8.716;2023-08-06T09:48:41;18.30;83.00
75161;DHT22;67232;50.096;8.716;2023-08-06T09:51:09;18.20;83.30
75161;DHT22;67232;50.096;8.716;2023-08-06T09:53:39;18.30;83.30
75161;DHT22;67232;50.096;8.716;2023-08-06T09:56:09;18.20;84.00
75161;DHT22;67232;50.096;8.716;2023-08-06T09:58:36;18.20;83.70
75161;DHT22;67232;50.096;8.716;2023-08-06T10:01:04;18.20;83.80
75161;DHT22;67232;50.096;8.716;2023-08-06T10:03:32;18.10;84.90
75161;DHT22;67232;50.096;8.716;2023-08-06T10:05:59;18.00;85.50
75161;DHT22;67232;50.096;8.716;2023-08-06T10:08:27;17.90;86.00
75161;DHT22;67232;50.096;8.716;2023-08-06T10:10:55;18.10;85.80
75161;DHT22;67232;50.096;8.716;2023-08-06T10:13:23;18.10;86.00
75161;DHT22;67232;50.096;8.716;2023-08-06T10:15:50;18.10;86.10
75161;DHT22;67232;50.096;8.716;2023-08-06T10:18:17;18.10;86.00
75161;DHT22;67232;50.096;8.716;2023-08-06T10:20:47;18.30;85.90
75161;DHT22;67232;50.096;8.716;2023-08-06T10:23:15;18.40;85.70
75161;DHT22;67232;50.096;8.716;2023-08-06T10:25:53;18.60;85.70
75161;DHT22;67232;50.096;8.716;2023-08-06T10:28:20;18.80;85.40
75161;DHT22;67232;50.096;8.716;2023-08-06T10:30:46;19.00;85.40
75161;DHT22;67232;50.096;8.716;2023-08-06T10:33:12;19.30;85.30
75161;DHT22;67232;50.096;8.716;2023-08-06T10:35:46;19.50;84.10
75161;DHT22;67232;50.096;8.716;2023-08-06T10:38:22;19.80;84.20
75161;DHT22;67232;50.096;8.716;2023-08-06T10:43:30;20.60;83.50
75161;DHT22;67232;50.096;8.716;2023-08-06T10:45:57;20.90;81.30
75161;DHT22;67232;50.096;8.716;2023-08-06T10:50:56;21.50;80.20
75161;DHT22;67232;50.096;8.716;2023-08-06T10:53:22;21.60;80.60
75161;DHT22;67232;50.096;8.716;2023-08-06T10:55:48;21.80;79.40
75161;DHT22;67232;50.096;8.716;2023-08-06T10:58:15;21.90;78.70
75161;DHT22;67232;50.096;8.716;2023-08-06T11:00:43;22.10;78.90
75161;DHT22;67232;50.096;8.716;2023-08-06T11:03:11;21.90;78.80
75161;DHT22;67232;50.096;8.716;2023-08-06T11:05:39;22.00;78.60
75161;DHT22;67232;50.096;8.716;2023-08-06T11:08:07;22.10;78.70
75161;DHT22;67232;50.096;8.716;2023-08-06T11:10:36;22.10;77.30
75161;DHT22;67232;50.096;8.716;2023-08-06T11:13:04;22.00;77.50
75161;DHT22;67232;50.096;8.716;2023-08-06T11:15:32;22.10;77.60
75161;DHT22;67232;50.096;8.716;2023-08-06T11:18:03;22.40;77.10
75161;DHT22;67232;50.096;8.716;2023-08-06T11:20:31;22.50;76.50
75161;DHT22;67232;50.096;8.716;2023-08-06T11:22:57;22.40;77.00
75161;DHT22;67232;50.096;8.716;2023-08-06T11:25:25;22.40;76.70
75161;DHT22;67232;50.096;8.716;2023-08-06T11:27:50;22.30;76.80
75161;DHT22;67232;50.096;8.716;2023-08-06T11:30:21;22.20;77.20
75161;DHT22;67232;50.096;8.716;2023-08-06T11:32:49;22.20;77.40
75161;DHT22;67232;50.096;8.716;2023-08-06T11:35:16;21.90;77.50
75161;DHT22;67232;50.096;8.716;2023-08-06T11:37:45;21.70;77.20
75161;DHT22;67232;50.096;8.716;2023-08-06T11:40:14;21.70;77.00
75161;DHT22;67232;50.096;8.716;2023-08-06T11:42:40;21.70;76.70
75161;DHT22;67232;50.096;8.716;2023-08-06T11:45:06;21.40;76.30
75161;DHT22;67232;50.096;8.716;2023-08-06T11:47:31;21.20;77.20
75161;DHT22;67232;50.096;8.716;2023-08-06T11:49:57;21.10;77.10
75161;DHT22;67232;50.096;8.716;2023-08-06T11:52:26;20.80;77.70
75161;DHT22;67232;50.096;8.716;2023-08-06T11:55:07;20.80;78.40
75161;DHT22;67232;50.096;8.716;2023-08-06T11:57:36;20.60;79.60
75161;DHT22;67232;50.096;8.716;2023-08-06T12:00:23;20.40;80.10
75161;DHT22;67232;50.096;8.716;2023-08-06T12:02:50;20.10;80.20
75161;DHT22;67232;50.096;8.716;2023-08-06T12:05:18;20.00;80.40
75161;DHT22;67232;50.096;8.716;2023-08-06T12:07:52;19.60;79.80
75161;DHT22;67232;50.096;8.716;2023-08-06T12:10:19;19.40;81.00
75161;DHT22;67232;50.096;8.716;2023-08-06T12:12:48;19.40;81.00
75161;DHT22;67232;50.096;8.716;2023-08-06T12:15:15;19.40;81.20
75161;DHT22;67232;50.096;8.716;2023-08-06T12:17:40;19.20;81.70
75161;DHT22;67232;50.096;8.716;2023-08-06T12:20:07;19.00;81.70
75161;DHT22;67232;50.096;8.716;2023-08-06T12:22:35;18.90;82.70
75161;DHT22;67232;50.096;8.716;2023-08-06T12:25:08;19.00;81.20
75161;DHT22;67232;50.096;8.716;2023-08-06T12:27:38;18.80;81.30
75161;DHT22;67232;50.096;8.716;2023-08-06T12:30:07;18.70;80.80
75161;DHT22;67232;50.096;8.716;2023-08-06T12:32:34;18.60;81.80
75161;DHT22;67232;50.096;8.716;2023-08-06T12:35:01;18.60;81.80
75161;DHT22;67232;50.096;8.716;2023-08-06T12:37:27;18.70;81.50
75161;DHT22;67232;50.096;8.716;2023-08-06T12:39:55;18.70;81.50
75161;DHT22;67232;50.096;8.716;2023-08-06T12:42:25;18.60;81.50
75161;DHT22;67232;50.096;8.716;2023-08-06T12:44:51;18.70;81.80
75161;DHT22;67232;50.096;8.716;2023-08-06T12:47:19;18.90;81.60
75161;DHT22;67232;50.096;8.716;2023-08-06T12:49:45;18.80;82.10
75161;DHT22;67232;50.096;8.716;2023-08-06T12:52:11;18.90;81.40
75161;DHT22;67232;50.096;8.716;2023-08-06T12:54:38;19.00;80.50
75161;DHT22;67232;50.096;8.716;2023-08-06T12:57:06;18.90;80.70
75161;DHT22;67232;50.096;8.716;2023-08-06T12:59:34;19.10;80.70
75161;DHT22;67232;50.096;8.716;2023-08-06T13:02:02;19.00;80.70
75161;DHT22;67232;50.096;8.716;2023-08-06T13:04:30;19.20;80.50
75161;DHT22;67232;50.096;8.716;2023-08-06T13:06:56;19.20;80.40
75161;DHT22;67232;50.096;8.716;2023-08-06T13:09:21;19.10;80.10
75161;DHT22;67232;50.096;8.716;2023-08-06T13:11:47;19.10;80.50
75161;DHT22;67232;50.096;8.716;2023-08-06T13:14:17;19.20;79.80
75161;DHT22;67232;50.096;8.716;2023-08-06T13:16:46;19.20;79.70
75161;DHT22;67232;50.096;8.716;2023-08-06T13:19:16;19.00;79.60
75161;DHT22;67232;50.096;8.716;2023-08-06T13:24:09;19.00;79.30
75161;DHT22;67232;50.096;8.716;2023-08-06T13:26:38;18.70;79.30
75161;DHT22;67232;50.096;8.716;2023-08-06T13:29:04;18.80;80.00
75161;DHT22;67232;50.096;8.716;2023-08-06T13:31:30;18.60;80.50
75161;DHT22;67232;50.096;8.716;2023-08-06T13:33:56;18.50;81.20
75161;DHT22;67232;50.096;8.716;2023-08-06T13:36:26;18.60;80.60
75161;DHT22;67232;50.096;8.716;2023-08-06T13:38:52;18.60;81.10
75161;DHT22;67232;50.096;8.716;2023-08-06T13:41:17;18.80;81.10
75161;DHT22;67232;50.096;8.716;2023-08-06T13:43:43;18.70;80.90
75161;DHT22;67232;50.096;8.716;2023-08-06T13:46:10;18.60;80.40
75161;DHT22;67232;50.096;8.716;2023-08-06T13:48:42;18.70;80.20
75161;DHT22;67232;50.096;8.716;2023-08-06T13:51:08;18.70;79.20
75161;DHT22;67232;50.096;8.716;2023-08-06T13:53:33;18.70;79.80
75161;DHT22;67232;50.096;8.716;2023-08-06T13:56:04;18.70;80.00
75161;DHT22;67232;50.096;8.716;2023-08-06T13:58:29;18.60;79.90
75161;DHT22;67232;50.096;8.716;2023-08-06T14:00:55;18.50;79.10
75161;DHT22;67232;50.096;8.716;2023-08-06T14:03:22;18.50;79.70
75161;DHT22;67232;50.096;8.716;2023-08-06T14:05:48;18.60;80.30
75161;DHT22;67232;50.096;8.716;2023-08-06T14:08:14;18.70;80.20
75161;DHT22;67232;50.096;8.716;2023-08-06T14:10:41;18.70;80.00
75161;DHT22;67232;50.096;8.716;2023-08-06T14:13:07;18.80;80.20
75161;DHT22;67232;50.096;8.716;2023-08-06T14:15:34;18.70;80.10
75161;DHT22;67232;50.096;8.716;2023-08-06T14:18:00;18.60;80.50
75161;DHT22;67232;50.096;8.716;2023-08-06T14:20:25;18.50;80.50
75161;DHT22;67232;50.096;8.716;2023-08-06T14:22:53;18.50;80.70
75161;DHT22;67232;50.096;8.716;2023-08-06T14:25:19;18.60;80.80
75161;DHT22;67232;50.096;8.716;2023-08-06T14:27:44;18.70;80.50
75161;DHT22;67232;50.096;8.716;2023-08-06T14:30:14;18.60;80.80
75161;DHT22;67232;50.096;8.716;2023-08-06T14:32:40;18.60;80.70
75161;DHT22;67232;50.096;8.716;2023-08-06T14:35:05;18.70;80.50
75161;DHT22;67232;50.096;8.716;2023-08-06T14:37:31;18.60;80.70
75161;DHT22;67232;50.096;8.716;2023-08-06T14:39:56;18.70;80.60
75161;DHT22;67232;50.096;8.716;2023-08-06T14:42:22;18.70;80.80
75161;DHT22;67232;50.096;8.716;2023-08-06T14:44:52;18.70;80.60
75161;DHT22;67232;50.096;8.716;2023-08-06T14:47:20;18.80;80.40
75161;DHT22;67232;50.096;8.716;2023-08-06T14:49:45;18.70;79.70
75161;DHT22;67232;50.096;8.716;2023-08-06T14:52:13;18.70;80.00
75161;DHT22;67232;50.096;8.716;2023-08-06T14:54:39;18.70;80.30
75161;DHT22;67232;50.096;8.716;2023-08-06T14:57:09;18.70;80.30
75161;DHT22;67232;50.096;8.716;2023-08-06T14:59:37;18.70;80.10
75161;DHT22;67232;50.096;8.716;2023-08-06T15:02:04;18.80;80.10
75161;DHT22;67232;50.096;8.716;2023-08-06T15:04:34;18.80;80.40
75161;DHT22;67232;50.096;8.716;2023-08-06T15:07:02;18.80;80.20
75161;DHT22;67232;50.096;8.716;2023-08-06T15:09:30;18.70;80.10
75161;DHT22;67232;50.096;8.716;2023-08-06T15:12:00;18.70;80.20
75161;DHT22;67232;50.096;8.716;2023-08-06T15:14:28;18.70;80.10
75161;DHT22;67232;50.096;8.716;2023-08-06T15:16:54;18.70;80.50
75161;DHT22;67232;50.096;8.716;2023-08-06T15:19:22;18.60;80.70
75161;DHT22;67232;50.096;8.716;2023-08-06T15:21:47;18.60;80.80
75161;DHT22;67232;50.096;8.716;2023-08-06T15:24:16;18.50;80.50
75161;DHT22;67232;50.096;8.716;2023-08-06T15:26:44;18.40;80.90
75161;DHT22;67232;50.096;8.716;2023-08-06T15:29:09;18.30;81.00
75161;DHT22;67232;50.096;8.716;2023-08-06T15:31:38;18.30;80.70
75161;DHT22;67232;50.096;8.716;2023-08-06T15:34:06;18.40;81.20
75161;DHT22;67232;50.096;8.716;2023-08-06T15:36:33;18.40;80.50
75161;DHT22;67232;50.096;8.716;2023-08-06T15:39:02;18.50;80.80
75161;DHT22;67232;50.096;8.716;2023-08-06T15:41:29;18.60;80.60
75161;DHT22;67232;50.096;8.716;2023-08-06T15:43:55;18.70;80.60
75161;DHT22;67232;50.096;8.716;2023-08-06T15:46:23;18.60;79.10